地図

経路データ

SID SEASON NUMBER BASIN SUBBASIN NAME ISO_TIME NATURE LAT LON WMO_WIND WMO_PRES WMO_AGENCY TRACK_TYPE DIST2LAND LANDFALL IFLAG USA_AGENCY USA_ATCF_ID USA_LAT USA_LON USA_RECORD USA_STATUS USA_WIND USA_PRES USA_SSHS USA_R34_NE USA_R34_SE USA_R34_SW USA_R34_NW USA_R50_NE USA_R50_SE USA_R50_SW USA_R50_NW USA_R64_NE USA_R64_SE USA_R64_SW USA_R64_NW USA_POCI USA_ROCI USA_RMW USA_EYE TOKYO_LAT TOKYO_LON TOKYO_GRADE TOKYO_WIND TOKYO_PRES TOKYO_R50_DIR TOKYO_R50_LONG TOKYO_R50_SHORT TOKYO_R30_DIR TOKYO_R30_LONG TOKYO_R30_SHORT TOKYO_LAND CMA_LAT CMA_LON CMA_CAT CMA_WIND CMA_PRES HKO_LAT HKO_LON HKO_CAT HKO_WIND HKO_PRES NEWDELHI_LAT NEWDELHI_LON NEWDELHI_GRADE NEWDELHI_WIND NEWDELHI_PRES NEWDELHI_CI NEWDELHI_DP NEWDELHI_POCI REUNION_LAT REUNION_LON REUNION_TYPE REUNION_WIND REUNION_PRES REUNION_TNUM REUNION_CI REUNION_RMW REUNION_R34_NE REUNION_R34_SE REUNION_R34_SW REUNION_R34_NW REUNION_R50_NE REUNION_R50_SE REUNION_R50_SW REUNION_R50_NW REUNION_R64_NE REUNION_R64_SE REUNION_R64_SW REUNION_R64_NW BOM_LAT BOM_LON BOM_TYPE BOM_WIND BOM_PRES BOM_TNUM BOM_CI BOM_RMW BOM_R34_NE BOM_R34_SE BOM_R34_SW BOM_R34_NW BOM_R50_NE BOM_R50_SE BOM_R50_SW BOM_R50_NW BOM_R64_NE BOM_R64_SE BOM_R64_SW BOM_R64_NW BOM_ROCI BOM_POCI BOM_EYE BOM_POS_METHOD BOM_PRES_METHOD NADI_LAT NADI_LON NADI_CAT NADI_WIND NADI_PRES WELLINGTON_LAT WELLINGTON_LON WELLINGTON_WIND WELLINGTON_PRES DS824_LAT DS824_LON DS824_STAGE DS824_WIND DS824_PRES TD9636_LAT TD9636_LON TD9636_STAGE TD9636_WIND TD9636_PRES TD9635_LAT TD9635_LON TD9635_WIND TD9635_PRES TD9635_ROCI NEUMANN_LAT NEUMANN_LON NEUMANN_CLASS NEUMANN_WIND NEUMANN_PRES MLC_LAT MLC_LON MLC_CLASS MLC_WIND MLC_PRES USA_GUST BOM_GUST BOM_GUST_PER REUNION_GUST REUNION_GUST_PER USA_SEAHGT USA_SEARAD_NE USA_SEARAD_SE USA_SEARAD_SW USA_SEARAD_NW STORM_SPEED STORM_DIR
1927333S22157 1928 71 SP EA NOT_NAMED 1927-11-28 23:00:00 NR -22.4500 157.050 999 bom main 470 443 ______O___O___ -1 -22.5000 157.100 999 4 -22.4000 157.000 7 17 188
1927333S22157 1928 71 SP EA NOT_NAMED 1927-11-29 00:00:00 TS -22.7242 157.011 main 443 397 ______P__OP___ -1 -22.7559 157.023 -22.8000 157.000 TC 30 999 -22.6545 157.005 7 16 188
1927333S22157 1928 71 SP EA NOT_NAMED 1927-11-29 03:00:00 TS -23.4736 156.900 main 392 365 ______P__PP___ -1 -23.5135 156.808 -23.5001 156.851 TC -23.4161 157.023 7 15 187
1927333S22157 1928 71 SP EA NOT_NAMED 1927-11-29 05:00:00 TS -23.9620 156.836 bom main 361 354 ______O__PP___ -1 -24.0000 156.700 -23.9667 156.750 TC -23.9203 157.037 7 15 187
1927333S22157 1928 71 SP EA NOT_NAMED 1927-11-29 06:00:00 TS -24.2020 156.802 main 354 343 ______P__OP___ -1 -24.2350 156.662 -24.2000 156.700 TC -24.1709 157.045 7 14 179
1927333S22157 1928 71 SP EA NOT_NAMED 1927-11-29 09:00:00 TS -24.8922 156.863 main 352 352 ______P__PP___ -1 -24.9124 156.619 -24.8505 156.895 TC -24.9138 157.075 7 14 174
1927333S22157 1928 71 SP EA NOT_NAMED 1927-11-29 11:00:00 TS -25.3446 156.926 main 353 353 ______P__PO___ -1 -25.3495 156.653 -25.2842 157.025 TC -25.4000 157.100 7 14 172
1927333S22157 1928 71 SP EA NOT_NAMED 1927-11-29 12:00:00 TS -25.5690 156.965 main 367 367 ______P__PP___ -1 -25.5662 156.689 -25.5010 157.091 TC -25.6398 157.115 7 14 170
1927333S22157 1928 71 SP EA NOT_NAMED 1927-11-29 14:00:00 TS -26.0152 157.058 bom main 387 387 ______O__PP___ -1 -26.0000 156.800 -25.9346 157.223 TC -26.1109 157.151 7 14 169
1927333S22157 1928 71 SP EA NOT_NAMED 1927-11-29 15:00:00 TS -26.2408 157.111 main 394 392 ______P__PP___ -1 -26.2298 156.871 -26.1514 157.290 TC -26.3413 157.172 7 14 166
1927333S22157 1928 71 SP EA NOT_NAMED 1927-11-29 18:00:00 TS -26.9093 157.306 main 392 386 ______P__PP___ -1 -26.9201 157.168 -26.8015 157.491 TC -27.0064 157.259 7 14 164
1927333S22157 1928 71 SP EA NOT_NAMED 1927-11-29 21:00:00 TS -27.5625 157.526 main 388 388 ______P__PP___ -1 -27.5859 157.541 -27.4511 157.694 TC -27.6225 157.386 7 13 162
1927333S22157 1928 71 SP EA NOT_NAMED 1927-11-29 23:00:00 TS -27.9768 157.686 bom main 402 401 ______O__PO___ -1 -28.0000 157.800 -27.8838 157.831 TC -28.0000 157.500 7 13 161
1927333S22157 1928 71 SP EA NOT_NAMED 1927-11-30 00:00:00 TS -28.1784 157.761 main 411 410 ______P__OP___ -1 -28.1947 157.926 -28.1000 157.900 TC -28.1817 157.562 7 12 157
1927333S22157 1928 71 SP EA NOT_NAMED 1927-11-30 03:00:00 NR -28.7074 158.035 main 428 428 ______P___P___ -1 -28.7301 158.286 TC -28.6846 157.784 7 11 153
1927333S22157 1928 71 SP EA NOT_NAMED 1927-11-30 06:00:00 NR -29.1671 158.337 main 457 457 ______P___P___ -1 -29.1999 158.619 TC -29.1344 158.056 7 10 148
1927333S22157 1928 71 SP EA NOT_NAMED 1927-11-30 09:00:00 NR -29.5788 158.650 main 490 490 ______P___P___ -1 -29.6141 158.930 TC -29.5435 158.370 7 10 146
1927333S22157 1928 71 SP EA NOT_NAMED 1927-11-30 11:00:00 NR -29.8321 158.863 main 522 522 ______P___O___ -1 -29.8642 159.126 TC -29.8000 158.600 7 9 143
1927333S22157 1928 71 SP EA NOT_NAMED 1927-11-30 12:00:00 NR -29.9536 158.971 main 536 536 ______P___P___ -1 -29.9825 159.222 TC -29.9247 158.720 7 9 141
1927333S22157 1928 71 SP EA NOT_NAMED 1927-11-30 15:00:00 NR -30.3012 159.299 main 572 572 ______P___P___ -1 -30.3151 159.499 TC -30.2873 159.100 7 9 140
1927333S22157 1928 71 SP EA NOT_NAMED 1927-11-30 18:00:00 NR -30.6289 159.634 main 608 608 ______P___P___ -1 -30.6214 159.766 -30.6363 159.501 7 9 138
1927333S22157 1928 71 SP EA NOT_NAMED 1927-11-30 21:00:00 NR -30.9437 159.972 main 651 651 ______P___P___ -1 -30.9112 160.027 -30.9762 159.918 7 9 137
1927333S22157 1928 71 SP MM NOT_NAMED 1927-11-30 23:00:00 NR -31.1500 160.200 bom main 673 ______O___O___ -1 -31.1000 160.200 -31.2000 160.200 7 9 137

デジタル台風データ・検索

IBTrACS Databaseについて

本データベースは、米国NOAAが公開する1842年以降の世界の熱帯低気圧のベストトラックデータアーカイブInternational Best Track Archive for Climate Stewardship (IBTrACS)を、ウェブで閲覧しやすい形式に変換したものです。

最終更新日:2021-10-19